Time;durP1;ratioP1;P1;durP2;ratioP2;P2;SDS_P1;SDS_P2;PMS_P1;PMS_P2;Temp;Humidity;BMP_temperature;BMP_pressure;BME280_temperature;BME280_humidity;BME280_pressure;Samples;Min_cycle;Max_cycle;Signal;HPM_P1;HPM_P2
2023/12/25 00:00:33;;;;;;;5.82;4.22;;;;;;;13.87;60.23;99046.56;2088471;28;20126;-65
2023/12/25 00:01:35;;;;;;;;;;;;;;;13.78;60.34;99052.88;2090674;28;20049;-64
2023/12/25 00:02:35;;;;;;;4.78;3.10;;;;;;;13.81;60.24;99050.72;2091516;28;19924;-65
2023/12/25 00:03:37;;;;;;;;;;;;;;;13.74;60.40;99055.03;2091984;28;20087;-64
2023/12/25 00:04:38;;;;;;;6.18;3.50;;;;;;;13.78;60.48;99044.88;2090818;28;19982;-64
2023/12/25 00:05:39;;;;;;;;;;;;;;;13.73;60.38;99050.69;2090720;28;20235;-65
2023/12/25 00:06:40;;;;;;;5.70;3.13;;;;;;;13.77;60.35;99049.38;2092718;28;19924;-66
2023/12/25 00:07:42;;;;;;;;;;;;;;;13.73;60.32;99047.19;2094925;28;20131;-64
2023/12/25 00:08:43;;;;;;;5.47;3.53;;;;;;;13.77;60.37;99044.06;2089612;28;20011;-65
2023/12/25 00:09:43;;;;;;;;;;;;;;;13.73;60.63;99047.19;2091722;28;20519;-64
2023/12/25 00:10:45;;;;;;;6.03;3.07;;;;;;;13.77;60.39;99054.72;2090985;28;19924;-64
2023/12/25 00:11:46;;;;;;;7.53;3.85;;;;;;;13.82;60.35;99051.56;2091285;28;20047;-64
2023/12/25 00:12:48;;;;;;;;;;;;;;;13.77;60.33;99051.22;2092575;28;20533;-64
2023/12/25 00:13:54;;;;;;;5.00;2.97;;;;;;;13.79;60.32;99050.06;2092219;28;19927;-65
2023/12/25 00:14:56;;;;;;;6.95;3.15;;;;;;;13.84;60.11;99054.88;2088964;28;20049;-65
2023/12/25 00:15:57;;;;;;;4.93;3.38;;;;;;;13.86;60.16;99053.72;2092023;28;20052;-65
2023/12/25 00:16:59;;;;;;;;;;;;;;;13.78;60.29;99055.53;2094581;28;20147;-65
2023/12/25 00:18:00;;;;;;;5.22;3.13;;;;;;;13.81;60.35;99056.03;2092130;28;20383;-65
2023/12/25 00:19:01;;;;;;;;;;;;;;;13.73;60.35;99050.69;2089746;28;20131;-65
2023/12/25 00:20:03;;;;;;;6.75;3.28;;;;;;;13.77;60.31;99057.38;2093238;28;20383;-64
2023/12/25 00:21:04;;;;;;;7.90;3.38;;;;;;;13.81;60.42;99052.56;2089903;28;20041;-65
2023/12/25 00:22:06;;;;;;;3.53;2.70;;;;;;;13.85;60.00;99052.06;2091699;28;20156;-65
2023/12/25 00:23:07;;;;;;;6.13;3.15;;;;;;;13.88;59.89;99053.59;2089031;28;20083;-65
2023/12/25 00:24:09;;;;;;;;;;;;;;;13.78;60.35;99051.03;2090554;28;20523;-65
2023/12/25 00:25:09;;;;;;;5.30;3.35;;;;;;;13.81;60.19;99055.22;2091807;28;19927;-64
2023/12/25 00:26:11;;;;;;;;;;;;;;;13.76;60.31;99055.72;2091028;28;20072;-65
2023/12/25 00:27:12;;;;;;;7.78;3.35;;;;;;;13.79;60.32;99057.22;2091890;28;19928;-65
2023/12/25 00:28:13;;;;;;;;;;;;;;;13.72;60.39;99057.03;2089093;28;20073;-65
2023/12/25 00:29:16;;;;;;;5.20;2.90;;;;;;;13.78;60.47;99048.38;2091829;28;20417;-64
2023/12/25 00:30:17;;;;;;;6.10;3.08;;;;;;;13.82;60.14;99057.75;2091555;28;20048;-64
2023/12/25 00:31:18;;;;;;;;;;;;;;;13.76;60.45;99049.53;2089727;28;22508;-65
2023/12/25 00:32:20;;;;;;;;;;;;;;;13.72;60.58;99056.19;2092754;28;20358;-64
2023/12/25 00:33:20;;;;;;;3.97;2.80;;;;;;;13.74;60.58;99044.38;2091254;28;20429;-65
2023/12/25 00:34:22;;;;;;;;;;;;;;;13.71;60.56;99046.53;2091618;28;20045;-63
2023/12/25 00:35:23;;;;;;;5.28;3.22;;;;;;;13.76;60.49;99042.41;2090228;28;20273;-65
2023/12/25 00:36:24;;;;;;;;;;;;;;;13.71;60.63;99043.88;2083687;28;20059;-65
2023/12/25 00:37:25;;;;;;;;;;;;;;;13.68;60.57;99049.50;2090121;28;19924;-64
2023/12/25 00:38:27;;;;;;;5.23;3.07;;;;;;;13.72;60.38;99046.38;2091931;28;20059;-64
2023/12/25 00:39:28;;;;;;;4.90;2.67;;;;;;;13.80;60.51;99042.91;2090841;28;20048;-65
2023/12/25 00:40:29;;;;;;;;;;;;;;;13.72;60.53;99040.22;2091970;28;20076;-65
2023/12/25 00:41:30;;;;;;;3.47;3.00;;;;;;;13.77;60.33;99038.72;2090944;28;19931;-65
2023/12/25 00:42:32;;;;;;;;;;;;;;;13.71;60.44;99038.56;2091636;28;20087;-65
2023/12/25 00:43:33;;;;;;;4.43;2.90;;;;;;;13.76;60.37;99041.53;2090979;28;19920;-64
2023/12/25 00:44:36;;;;;;;;;;;;;;;13.71;60.57;99039.38;2092195;28;20045;-65
2023/12/25 00:45:36;;;;;;;6.75;3.50;;;;;;;13.77;60.45;99043.22;2091883;28;19923;-65
2023/12/25 00:46:38;;;;;;;;;;;;;;;13.71;60.44;99039.38;2092841;28;20059;-64
2023/12/25 00:47:39;;;;;;;6.97;2.65;;;;;;;13.77;60.44;99043.22;2091398;28;20493;-64
2023/12/25 00:48:40;;;;;;;;;;;;;;;13.70;60.59;99045.69;2093377;28;20080;-65
2023/12/25 00:49:41;;;;;;;5.55;3.08;;;;;;;13.77;60.40;99048.56;2093213;28;19928;-65
2023/12/25 00:50:43;;;;;;;;;;;;;;;13.71;60.65;99034.03;2091898;28;20122;-65
2023/12/25 00:51:43;;;;;;;;;;;;;;;13.66;60.63;99046.19;2092404;28;19924;-64
2023/12/25 00:52:45;;;;;;;7.23;3.17;;;;;;;13.73;60.52;99039.19;2089742;28;19960;-65
2023/12/25 00:53:46;;;;;;;3.63;3.08;;;;;;;13.80;60.34;99042.91;2089763;28;20049;-64
2023/12/25 00:54:47;;;;;;;;;;;;;;;13.73;60.57;99039.19;2090618;28;20045;-65
2023/12/25 00:55:49;;;;;;;10.83;3.67;;;;;;;13.77;60.50;99038.72;2090895;28;19932;-65
2023/12/25 00:56:49;;;;;;;6.55;3.78;;;;;;;13.82;60.30;99040.91;2092666;28;20043;-65
2023/12/25 00:57:51;;;;;;;;;;;;;;;13.77;60.31;99045.88;2085707;28;20131;-64
2023/12/25 00:58:52;;;;;;;4.93;3.35;;;;;;;13.78;60.28;99039.56;2089079;28;19925;-64
2023/12/25 00:59:55;;;;;;;;;;;;;;;13.72;60.59;99040.22;2090700;28;20125;-65
2023/12/25 01:00:56;;;;;;;4.38;3.20;;;;;;;13.78;60.38;99044.88;2090616;28;19931;-64
2023/12/25 01:01:58;;;;;;;;;;;;;;;13.71;60.33;99038.56;2092381;28;20147;-64
2023/12/25 01:02:59;;;;;;;5.35;3.45;;;;;;;13.77;60.33;99043.22;2091770;28;19921;-64
2023/12/25 01:04:01;;;;;;;5.90;3.05;;;;;;;13.82;60.22;99036.41;2090609;28;20536;-64
2023/12/25 01:05:02;;;;;;;4.75;3.53;;;;;;;13.85;60.25;99043.25;2088385;28;20044;-65
2023/12/25 01:06:04;;;;;;;6.60;3.00;;;;;;;13.86;60.09;99039.56;2090474;28;20127;-65
2023/12/25 01:07:05;;;;;;;4.97;3.08;;;;;;;13.85;60.14;99038.75;2090631;28;20049;-65
2023/12/25 01:08:07;;;;;;;;;;;;;;;13.77;60.35;99035.22;2091267;28;20504;-64
2023/12/25 01:09:07;;;;;;;;;;;;;;;13.70;60.43;99031.53;2091532;28;19931;-64
2023/12/25 01:10:09;;;;;;;6.80;3.40;;;;;;;13.75;60.51;99043.38;2090747;28;20019;-64
2023/12/25 01:11:11;;;;;;;4.78;3.15;;;;;;;13.79;60.29;99030.53;2088250;28;20047;-65
2023/12/25 01:12:12;;;;;;;6.25;3.63;;;;;;;13.84;60.35;99041.56;2090258;28;20041;-65
2023/12/25 01:13:13;;;;;;;;;;;;;;;13.75;60.39;99039.88;2091204;28;20480;-65
2023/12/25 01:14:14;;;;;;;5.35;2.90;;;;;;;13.78;60.39;99040.38;2092005;28;19928;-65
2023/12/25 01:15:17;;;;;;;;;;;;;;;13.71;60.47;99042.03;2090941;28;20069;-64
2023/12/25 01:16:18;;;;;;;5.00;2.85;;;;;;;13.76;60.29;99042.41;2087838;28;19929;-65
2023/12/25 01:17:20;;;;;;;;;;;;;;;13.72;60.56;99040.22;2090018;28;20040;-64
2023/12/25 01:18:20;;;;;;;;;;;;;;;13.68;60.77;99044.19;2090748;28;19995;-60
2023/12/25 01:19:22;;;;;;;3.83;2.60;;;;;;;13.74;60.46;99044.38;2090051;28;20311;-65
2023/12/25 01:20:23;;;;;;;3.47;3.00;;;;;;;13.79;60.35;99047.41;2090934;28;20052;-65
2023/12/25 01:21:25;;;;;;;;;;;;;;;13.72;60.50;99045.53;2091972;28;20147;-64
2023/12/25 01:22:26;;;;;;;6.22;2.78;;;;;;;13.77;60.53;99038.72;2092083;28;19920;-64
2023/12/25 01:23:27;;;;;;;;;;;;;;;13.71;60.36;99041.22;2093318;28;20271;-64
2023/12/25 01:24:28;;;;;;;6.13;3.33;;;;;;;13.76;60.42;99041.53;2089589;28;20239;-65
2023/12/25 01:25:30;;;;;;;;;;;;;;;13.69;60.62;99041.34;2089898;28;20484;-64
2023/12/25 01:26:31;;;;;;;6.72;3.42;;;;;;;13.75;60.55;99034.53;2090503;28;19932;-64
2023/12/25 01:27:31;;;;;;;;;;;;;;;13.71;60.46;99043.88;2091128;28;20143;-64
2023/12/25 01:28:33;;;;;;;5.80;3.33;;;;;;;13.75;60.35;99042.53;2090224;28;19928;-64
2023/12/25 01:29:34;;;;;;;4.88;2.90;;;;;;;13.79;60.43;99043.88;2090019;28;20052;-64
2023/12/25 01:30:36;;;;;;;;;;;;;;;13.73;60.51;99041.88;2088936;28;20080;-64
2023/12/25 01:31:38;;;;;;;6.90;3.00;;;;;;;13.76;60.53;99042.41;2088941;28;19959;-66
2023/12/25 01:32:39;;;;;;;4.53;3.13;;;;;;;13.82;60.30;99040.91;2091462;28;20053;-65
2023/12/25 01:33:39;;;;;;;;;;;;;;;13.74;60.34;99039.06;2091076;28;20163;-64
2023/12/25 01:34:41;;;;;;;4.10;2.50;;;;;;;13.78;60.24;99042.22;2090408;28;20390;-64
2023/12/25 01:35:42;;;;;;;3.83;2.53;;;;;;;13.83;60.04;99045.22;2091747;28;20049;-64
2023/12/25 01:36:43;;;;;;;;;;;;;;;13.74;60.41;99043.56;2091251;28;20131;-65
2023/12/25 01:37:44;;;;;;;5.45;3.58;;;;;;;13.79;60.35;99049.22;2089865;28;19982;-65
2023/12/25 01:38:46;;;;;;;;;;;;;;;13.73;60.38;99052.53;2091161;28;20576;-64
2023/12/25 01:39:47;;;;;;;5.70;3.13;;;;;;;13.78;60.36;99050.22;2090566;28;19924;-65
2023/12/25 01:40:49;;;;;;;;;;;;;;;13.72;60.44;99048.19;2091652;28;20087;-64
2023/12/25 01:41:49;;;;;;;;;;;;;;;13.67;60.52;99042.53;2091558;28;19924;-64
2023/12/25 01:42:50;;;;;;;5.30;2.77;;;;;;;13.72;60.64;99046.38;2089925;28;19947;-64
2023/12/25 01:43:51;;;;;;;;;;;;;;;13.68;60.72;99046.84;2089944;28;20079;-65
2023/12/25 01:44:53;;;;;;;9.45;3.78;;;;;;;13.74;60.39;99048.88;2089983;28;19920;-65
2023/12/25 01:45:56;;;;;;;5.50;3.45;;;;;;;13.80;60.32;99045.56;2089597;28;20403;-64
2023/12/25 01:46:57;;;;;;;5.57;3.65;;;;;;;13.81;60.27;99045.38;2088233;28;20052;-65
2023/12/25 01:47:58;;;;;;;;;;;;;;;13.74;60.43;99046.22;2091021;28;20048;-64
2023/12/25 01:49:00;;;;;;;6.88;2.97;;;;;;;13.77;60.45;99045.88;2088052;28;19928;-64
2023/12/25 01:50:02;;;;;;;4.07;2.70;;;;;;;13.81;60.05;99041.88;2087911;28;20097;-65
2023/12/25 01:51:05;;;;;;;4.70;2.88;;;;;;;13.84;60.25;99046.91;2090289;28;20044;-64
2023/12/25 01:52:06;;;;;;;7.07;3.15;;;;;;;13.85;60.06;99045.91;2089805;28;20049;-64
2023/12/25 01:53:07;;;;;;;;;;;;;;;13.75;60.27;99039.88;2088925;28;20044;-65
2023/12/25 01:54:08;;;;;;;7.57;3.50;;;;;;;13.79;60.38;99041.22;2088539;28;19929;-64
2023/12/25 01:55:10;;;;;;;;;;;;;;;13.71;60.47;99044.72;2091756;28;20083;-64
2023/12/25 01:56:11;;;;;;;;;;;;;;;13.68;60.71;99046.84;2090981;28;20390;-64
2023/12/25 01:57:12;;;;;;;4.28;2.72;;;;;;;13.74;60.54;99041.72;2091814;28;19967;-65
2023/12/25 01:58:13;;;;;;;6.90;3.45;;;;;;;13.77;60.46;99037.91;2092039;28;20033;-64
2023/12/25 01:59:15;;;;;;;;;;;;;;;13.72;60.45;99046.38;2090854;28;20056;-64
2023/12/25 02:00:16;;;;;;;5.05;3.38;;;;;;;13.75;60.50;99037.22;2089909;28;20015;-65
2023/12/25 02:01:19;;;;;;;;;;;;;;;13.70;60.37;99037.69;2093582;28;20055;-63
2023/12/25 02:02:22;;;;;;;8.38;3.17;;;;;;;13.76;60.37;99044.19;2092653;28;19920;-65
2023/12/25 02:03:23;;;;;;;4.97;2.60;;;;;;;13.78;60.24;99039.56;2088787;28;20045;-65
2023/12/25 02:04:25;;;;;;;;;;;;;;;13.72;60.51;99042.88;2090488;28;20049;-65
2023/12/25 02:05:26;;;;;;;;;;;;;;;13.67;60.41;99042.53;2090105;28;19931;-66
2023/12/25 02:06:28;;;;;;;4.07;2.70;;;;;;;13.73;60.49;99044.53;2091945;28;19928;-64
2023/12/25 02:07:30;;;;;;;6.05;4.00;;;;;;;13.80;60.30;99043.72;2091382;28;20576;-64
2023/12/25 02:08:31;;;;;;;5.95;3.35;;;;;;;13.83;60.23;99040.72;2090833;28;20423;-65
2023/12/25 02:09:33;;;;;;;7.63;3.50;;;;;;;13.85;60.11;99041.41;2091357;28;20075;-66
2023/12/25 02:10:34;;;;;;;7.13;2.80;;;;;;;13.84;60.17;99041.56;2089437;28;20044;-64
2023/12/25 02:11:37;;;;;;;;;;;;;;;13.75;60.22;99043.38;2091169;28;20072;-65
2023/12/25 02:12:39;;;;;;;3.67;2.45;;;;;;;13.79;60.14;99046.53;2091002;28;19929;-64
2023/12/25 02:13:40;;;;;;;6.75;3.33;;;;;;;13.82;60.20;99046.25;2090942;28;20507;-65
2023/12/25 02:14:42;;;;;;;;;;;;;;;13.73;60.28;99042.69;2090134;28;20072;-65
2023/12/25 02:15:43;;;;;;;6.28;3.33;;;;;;;13.77;60.29;99044.06;2092331;28;19940;-65
2023/12/25 02:16:47;;;;;;;7.95;2.70;;;;;;;13.82;60.25;99040.91;2093620;28;20406;-65
2023/12/25 02:17:49;;;;;;;8.07;2.75;;;;;;;13.85;60.19;99041.41;2087834;28;20056;-66
2023/12/25 02:18:51;;;;;;;5.43;3.45;;;;;;;13.84;60.12;99037.06;2089768;28;20049;-64
2023/12/25 02:19:53;;;;;;;5.90;2.67;;;;;;;13.84;60.12;99041.56;2091848;28;20708;-64
2023/12/25 02:20:56;;;;;;;5.40;3.22;;;;;;;13.86;59.95;99037.75;2092861;28;20053;-64
2023/12/25 02:21:58;;;;;;;6.20;3.10;;;;;;;13.89;60.02;99036.56;2091962;28;20051;-66
2023/12/25 02:23:03;;;;;;;5.95;2.90;;;;;;;13.87;59.99;99035.91;2090145;28;20165;-65
2023/12/25 02:24:08;;;;;;;4.70;2.95;;;;;;;13.86;60.14;99036.91;2088076;28;20041;-66
2023/12/25 02:25:15;;;;;;;4.60;2.70;;;;;;;13.87;59.86;99041.22;2090380;28;20088;-65
2023/12/25 02:26:17;;;;;;;7.90;3.50;;;;;;;13.87;59.98;99035.91;2090863;28;20055;-65
2023/12/25 02:27:18;;;;;;;7.15;3.22;;;;;;;13.88;60.08;99037.59;2090166;28;20048;-66
2023/12/25 02:28:20;;;;;;;;;;;;;;;13.75;60.22;99032.72;2090997;28;20049;-65
2023/12/25 02:29:20;;;;;;;5.90;3.22;;;;;;;13.80;60.13;99042.91;2092868;28;20303;-65
2023/12/25 02:30:22;;;;;;;;;;;;;;;13.70;60.34;99032.34;2091831;28;20155;-65
2023/12/25 02:31:23;;;;;;;;;;;;;;;13.69;60.60;99037.88;2092879;28;19920;-66
2023/12/25 02:32:25;;;;;;;6.10;2.80;;;;;;;13.72;60.48;99041.03;2091216;28;20863;-66
2023/12/25 02:33:26;;;;;;;5.85;2.63;;;;;;;13.78;60.41;99040.38;2092891;28;20044;-66
2023/12/25 02:34:28;;;;;;;;;;;;;;;13.72;60.45;99033.03;2091757;28;20059;-66
2023/12/25 02:35:29;;;;;;;4.38;2.85;;;;;;;13.74;60.31;99039.06;2093192;28;19928;-65
2023/12/25 02:36:29;;;;;;;;;;;;;;;13.70;60.46;99035.03;2093630;28;20068;-65
2023/12/25 02:37:31;;;;;;;6.73;3.50;;;;;;;13.74;60.37;99036.38;2090601;28;19974;-65
2023/12/25 02:38:32;;;;;;;3.97;2.78;;;;;;;13.80;60.39;99040.22;2094729;28;20048;-66
2023/12/25 02:39:33;;;;;;;;;;;;;;;13.71;60.36;99035.88;2090842;28;20071;-64
2023/12/25 02:40:35;;;;;;;7.35;2.97;;;;;;;13.75;60.42;99034.53;2091157;28;20289;-65
2023/12/25 02:41:38;;;;;;;4.20;2.58;;;;;;;13.81;60.19;99033.88;2094513;28;20071;-65
2023/12/25 02:42:39;;;;;;;8.07;3.38;;;;;;;13.83;60.25;99037.25;2092372;28;20076;-65
2023/12/25 02:43:41;;;;;;;;;;;;;;;13.75;60.23;99029.22;2092938;28;20045;-65
2023/12/25 02:44:42;;;;;;;;;;;;;;;13.68;60.62;99030.84;2092183;28;19931;-65
2023/12/25 02:45:43;;;;;;;4.87;2.53;;;;;;;13.73;60.38;99031.19;2093931;28;20019;-65
2023/12/25 02:46:44;;;;;;;5.22;2.85;;;;;;;13.77;60.29;99033.38;2092740;28;20657;-64
2023/12/25 02:47:45;;;;;;;;;;;;;;;13.72;60.36;99037.53;2089136;28;20075;-65
2023/12/25 02:48:47;;;;;;;3.87;2.50;;;;;;;13.74;60.40;99031.06;2093585;28;19920;-64
2023/12/25 02:49:47;;;;;;;7.13;3.08;;;;;;;13.80;60.39;99021.56;2090394;28;20688;-65
2023/12/25 02:50:48;;;;;;;;;;;;;;;13.72;60.51;99027.72;2089898;28;20140;-65
2023/12/25 02:51:50;;;;;;;4.20;2.40;;;;;;;13.76;60.60;99031.72;2092189;28;19973;-64
2023/12/25 02:52:51;;;;;;;6.00;2.60;;;;;;;13.79;60.24;99033.22;2092335;28;20049;-65
2023/12/25 02:53:52;;;;;;;;;;;;;;;13.73;60.35;99031.19;2091445;28;20136;-66
2023/12/25 02:54:53;;;;;;;8.18;2.92;;;;;;;13.76;60.37;99030.88;2090237;28;20386;-64
2023/12/25 02:55:55;;;;;;;;;;;;;;;13.72;60.54;99032.22;2091375;28;20150;-64
2023/12/25 02:56:57;;;;;;;6.22;2.80;;;;;;;13.76;60.44;99030.88;2091812;28;20307;-65
2023/12/25 02:57:59;;;;;;;5.68;3.33;;;;;;;13.80;60.22;99037.56;2089728;28;22314;-64
2023/12/25 02:59:00;;;;;;;4.65;2.45;;;;;;;13.83;60.20;99038.06;2092581;28;20086;-64
2023/12/25 03:00:01;;;;;;;;;;;;;;;13.75;60.48;99034.53;2091010;28;20052;-65
2023/12/25 03:01:02;;;;;;;6.65;3.05;;;;;;;13.77;60.21;99033.38;2091155;28;19939;-64
2023/12/25 03:02:05;;;;;;;7.05;2.80;;;;;;;13.82;60.31;99035.56;2092845;28;20060;-64
2023/12/25 03:03:06;;;;;;;6.18;2.88;;;;;;;13.84;60.28;99036.22;2091690;28;20036;-65
2023/12/25 03:04:08;;;;;;;;;;;;;;;13.75;60.30;99037.22;2092560;28;20481;-64
2023/12/25 03:05:08;;;;;;;4.90;2.55;;;;;;;13.77;60.37;99036.06;2092813;28;20536;-65
2023/12/25 03:06:09;;;;;;;;;;;;;;;13.71;60.51;99033.22;2090793;28;20080;-64
2023/12/25 03:07:11;;;;;;;5.93;2.73;;;;;;;13.75;60.30;99034.53;2089992;28;20017;-65
2023/12/25 03:08:12;;;;;;;3.80;2.45;;;;;;;13.79;60.26;99030.53;2090274;28;20075;-65
2023/12/25 03:09:13;;;;;;;;;;;;;;;13.72;60.52;99032.22;2092695;28;20063;-65
2023/12/25 03:10:15;;;;;;;3.70;2.13;;;;;;;13.76;60.25;99033.53;2092360;28;19924;-65
2023/12/25 03:11:15;;;;;;;;;;;;;;;13.72;60.60;99035.69;2091501;28;20048;-64
2023/12/25 03:12:18;;;;;;;5.97;2.47;;;;;;;13.76;60.31;99037.06;2089844;28;19921;-64
2023/12/25 03:13:19;;;;;;;4.05;3.05;;;;;;;13.78;60.33;99039.56;2089081;28;20287;-65
2023/12/25 03:14:21;;;;;;;;;;;;;;;13.75;60.21;99047.88;2091226;28;20124;-64
2023/12/25 03:15:22;;;;;;;6.13;3.10;;;;;;;13.76;60.37;99041.53;2089769;28;19928;-65
2023/12/25 03:16:23;;;;;;;;;;;;;;;13.70;60.67;99040.34;2091162;28;20079;-64
2023/12/25 03:17:24;;;;;;;;;;;;;;;13.66;60.56;99040.84;2092527;28;19924;-64
2023/12/25 03:18:26;;;;;;;4.10;2.40;;;;;;;13.71;60.42;99036.72;2092659;28;19964;-65
2023/12/25 03:19:27;;;;;;;4.20;2.67;;;;;;;13.77;60.48;99035.22;2092670;28;20309;-64
2023/12/25 03:20:28;;;;;;;;;;;;;;;13.72;60.47;99040.22;2090386;28;20072;-66
2023/12/25 03:21:29;;;;;;;3.05;2.17;;;;;;;13.75;60.29;99030.03;2090485;28;19947;-64
2023/12/25 03:22:31;;;;;;;;;;;;;;;13.70;60.52;99036.84;2090082;28;20492;-65
2023/12/25 03:23:31;;;;;;;;;;;;;;;13.67;60.52;99042.53;2093071;28;19974;-65
2023/12/25 03:24:33;;;;;;;7.05;3.10;;;;;;;13.71;60.64;99039.38;2090608;28;21348;-65
2023/12/25 03:25:34;;;;;;;4.30;2.15;;;;;;;13.75;60.29;99045.22;2091794;28;20075;-64
2023/12/25 03:26:36;;;;;;;;;;;;;;;13.71;60.45;99036.72;2093540;28;20538;-64
2023/12/25 03:27:38;;;;;;;3.75;2.30;;;;;;;13.76;60.29;99041.53;2090485;28;19921;-64
2023/12/25 03:28:40;;;;;;;5.18;3.03;;;;;;;13.78;60.20;99036.88;2089367;28;20139;-64
2023/12/25 03:29:41;;;;;;;3.33;2.40;;;;;;;13.82;60.27;99035.56;2090774;28;21122;-65
2023/12/25 03:30:42;;;;;;;;;;;;;;;13.75;60.50;99034.53;2093059;28;20123;-66
2023/12/25 03:31:44;;;;;;;;;;;;;;;13.68;60.47;99033.50;2094349;28;19920;-65
2023/12/25 03:32:46;;;;;;;3.13;1.85;;;;;;;13.74;60.60;99040.88;2089425;28;19974;-63
2023/12/25 03:33:46;;;;;;;6.50;3.28;;;;;;;13.77;60.34;99032.56;2090716;28;20056;-63
2023/12/25 03:34:48;;;;;;;;;;;;;;;13.72;60.32;99034.88;2094468;28;20087;-62
2023/12/25 03:35:50;;;;;;;6.40;3.75;;;;;;;13.74;60.30;99033.72;2090614;28;19999;-64
2023/12/25 03:36:51;;;;;;;6.20;2.58;;;;;;;13.80;60.22;99037.56;2090393;28;20053;-62
2023/12/25 03:37:52;;;;;;;;;;;;;;;13.73;60.49;99037.38;2093086;28;20148;-61
2023/12/25 03:38:53;;;;;;;;;;;;;;;13.67;60.56;99032.69;2090833;28;19920;-64
2023/12/25 03:39:57;;;;;;;3.20;2.10;;;;;;;13.72;60.40;99029.53;2092960;28;19970;-63
2023/12/25 03:40:58;;;;;;;4.07;2.33;;;;;;;13.77;60.39;99032.56;2091130;28;20063;-63
2023/12/25 03:41:59;;;;;;;;;;;;;;;13.70;60.39;99031.53;2093832;28;20481;-62
2023/12/25 03:43:02;;;;;;;4.65;2.95;;;;;;;13.75;60.38;99031.88;2089759;28;20306;-63
2023/12/25 03:44:04;;;;;;;6.30;2.33;;;;;;;13.78;60.26;99035.03;2092055;28;20048;-63
2023/12/25 03:45:05;;;;;;;5.20;3.00;;;;;;;13.83;60.13;99037.25;2089929;28;20763;-63
2023/12/25 03:46:06;;;;;;;6.35;3.03;;;;;;;13.83;60.13;99038.06;2090494;28;20083;-63
2023/12/25 03:47:08;;;;;;;3.70;2.30;;;;;;;13.83;60.05;99037.25;2091113;28;20416;-63
2023/12/25 03:48:09;;;;;;;8.57;2.88;;;;;;;13.84;60.10;99038.91;2092153;28;20048;-63
2023/12/25 03:49:11;;;;;;;;;;;;;;;13.73;60.23;99034.69;2089396;28;20643;-62
2023/12/25 03:50:12;;;;;;;;;;;;;;;13.68;60.50;99033.50;2091072;28;19951;-61
2023/12/25 03:51:13;;;;;;;4.47;3.17;;;;;;;13.72;60.40;99037.53;2091082;28;19981;-62
2023/12/25 03:52:14;;;;;;;5.32;2.42;;;;;;;13.77;60.54;99037.91;2090330;28;20131;-63
2023/12/25 03:53:16;;;;;;;;;;;;;;;13.70;60.32;99036.84;2090608;28;20059;-63
2023/12/25 03:54:17;;;;;;;8.85;2.78;;;;;;;13.74;60.41;99027.56;2089155;28;19921;-63
2023/12/25 03:55:18;;;;;;;;;;;;;;;13.69;60.68;99032.53;2090602;28;20136;-62
2023/12/25 03:56:22;;;;;;;5.25;2.42;;;;;;;13.72;60.56;99029.53;2092899;28;19929;-61
2023/12/25 03:57:24;;;;;;;5.82;2.85;;;;;;;13.77;60.23;99030.72;2091296;28;20045;-63
2023/12/25 03:58:26;;;;;;;4.43;2.40;;;;;;;13.81;60.22;99029.38;2089253;28;20071;-64
2023/12/25 03:59:28;;;;;;;8.45;2.40;;;;;;;13.83;60.05;99023.91;2090907;28;20551;-64
2023/12/25 04:00:29;;;;;;;5.05;2.90;;;;;;;13.83;60.04;99037.25;2089954;28;20551;-64
2023/12/25 04:01:31;;;;;;;;;;;;;;;13.74;60.41;99027.56;2092733;28;20059;-64
2023/12/25 04:02:32;;;;;;;5.65;2.80;;;;;;;13.76;60.32;99025.53;2090104;28;20387;-63
2023/12/25 04:03:33;;;;;;;;;;;;;;;13.71;60.57;99028.72;2093218;28;20131;-64
2023/12/25 04:04:34;;;;;;;4.25;2.47;;;;;;;13.75;60.25;99023.88;2091883;28;19925;-64
2023/12/25 04:05:36;;;;;;;;;;;;;;;13.69;60.59;99019.22;2091261;28;20102;-64
2023/12/25 04:06:36;;;;;;;3.33;2.13;;;;;;;13.73;60.49;99017.88;2091925;28;19928;-64
2023/12/25 04:07:38;;;;;;;;;;;;;;;13.68;60.56;99021.03;2091857;28;20190;-64
2023/12/25 04:08:39;;;;;;;4.13;2.58;;;;;;;13.73;60.46;99023.19;2092257;28;20023;-64
2023/12/25 04:09:42;;;;;;;;;;;;;;;13.68;60.50;99022.84;2091101;28;20055;-63
2023/12/25 04:10:42;;;;;;;4.78;2.90;;;;;;;13.73;60.26;99021.38;2091752;28;20375;-64
2023/12/25 04:11:44;;;;;;;;;;;;;;;13.68;60.53;99017.53;2088737;28;20124;-63
2023/12/25 04:12:45;;;;;;;3.45;2.33;;;;;;;13.72;60.43;99016.22;2090549;28;19932;-61
2023/12/25 04:13:53;;;;;;;;;;;;;;;13.67;60.49;99013.19;2092108;28;20150;-61
2023/12/25 04:14:54;;;;;;;4.75;2.55;;;;;;;13.73;60.51;99015.22;2090076;28;20379;-63
2023/12/25 04:15:55;;;;;;;;;;;;;;;13.68;60.59;99015.72;2090546;28;20047;-61
2023/12/25 04:16:56;;;;;;;5.47;2.65;;;;;;;13.74;60.39;99017.72;2088840;28;20281;-61
2023/12/25 04:17:58;;;;;;;;;;;;;;;13.68;60.44;99017.53;2091409;28;20132;-64
2023/12/25 04:18:59;;;;;;;4.82;2.45;;;;;;;13.73;60.28;99015.22;2089608;28;20384;-63
2023/12/25 04:20:00;;;;;;;;;;;;;;;13.67;60.54;99015.88;2091885;28;20135;-62
2023/12/25 04:21:01;;;;;;;5.70;2.40;;;;;;;13.73;60.38;99016.03;2090851;28;19931;-63
2023/12/25 04:22:03;;;;;;;;;;;;;;;13.66;60.61;99023.03;2091280;28;20132;-61
2023/12/25 04:23:03;;;;;;;6.38;2.53;;;;;;;13.73;60.33;99015.22;2091673;28;20796;-63
2023/12/25 04:24:05;;;;;;;;;;;;;;;13.66;60.50;99012.38;2091175;28;20148;-63
2023/12/25 04:25:06;;;;;;;3.35;2.15;;;;;;;13.71;60.41;99015.38;2092270;28;19928;-64
2023/12/25 04:26:08;;;;;;;5.22;3.20;;;;;;;13.76;60.36;99014.88;2089624;28;20076;-63
2023/12/25 04:27:09;;;;;;;7.00;3.08;;;;;;;13.79;60.04;99010.06;2090960;28;20044;-63
2023/12/25 04:28:11;;;;;;;;;;;;;;;13.73;60.34;99018.69;2093907;28;20487;-63
2023/12/25 04:29:13;;;;;;;6.05;2.97;;;;;;;13.75;60.27;99013.22;2088663;28;20379;-62
2023/12/25 04:30:15;;;;;;;7.05;3.17;;;;;;;13.79;60.06;99015.41;2092966;28;20102;-62
2023/12/25 04:31:16;;;;;;;7.15;2.78;;;;;;;13.82;60.37;99014.25;2091960;28;20044;-61
2023/12/25 04:32:18;;;;;;;6.38;2.88;;;;;;;13.81;60.13;99005.38;2090165;28;20558;-62
2023/12/25 04:33:19;;;;;;;7.35;2.78;;;;;;;13.84;60.11;99017.56;2088850;28;20419;-62
2023/12/25 04:34:20;;;;;;;3.55;2.20;;;;;;;13.84;60.25;99014.91;2089853;28;20156;-62
2023/12/25 04:35:21;;;;;;;;;;;;;;;13.73;60.19;99016.03;2092836;28;20095;-62
2023/12/25 04:36:23;;;;;;;3.87;2.37;;;;;;;13.76;60.27;99017.53;2088906;28;19920;-63
2023/12/25 04:37:23;;;;;;;7.28;3.50;;;;;;;13.79;60.10;99017.22;2089795;28;20049;-63
2023/12/25 04:38:24;;;;;;;;;;;;;;;13.71;60.29;99010.06;2089964;28;20040;-62
2023/12/25 04:39:26;;;;;;;6.43;2.23;;;;;;;13.74;60.54;99011.56;2088807;28;20007;-63
2023/12/25 04:40:27;;;;;;;5.90;2.58;;;;;;;13.77;60.27;99017.41;2093062;28;20074;-62
2023/12/25 04:41:28;;;;;;;;;;;;;;;13.71;60.26;99006.56;2089839;28;20044;-62
2023/12/25 04:42:29;;;;;;;8.05;2.28;;;;;;;13.74;60.42;99012.41;2090153;28;19928;-63
2023/12/25 04:43:30;;;;;;;;;;;;;;;13.68;60.44;99012.19;2092581;28;20171;-62
2023/12/25 04:44:33;;;;;;;5.13;2.13;;;;;;;13.73;60.54;99007.22;2090299;28;20011;-62
2023/12/25 04:45:34;;;;;;;6.45;2.95;;;;;;;13.78;60.12;99007.56;2091692;28;20056;-63
2023/12/25 04:46:36;;;;;;;;;;;;;;;13.70;60.41;99012.88;2089897;28;20131;-64
2023/12/25 04:47:37;;;;;;;5.47;2.05;;;;;;;13.73;60.41;99010.69;2089201;28;20670;-63
2023/12/25 04:48:38;;;;;;;;;;;;;;;13.68;60.40;99015.72;2090867;28;20052;-63
2023/12/25 04:49:39;;;;;;;3.25;2.00;;;;;;;13.72;60.45;99009.03;2090181;28;20411;-64
2023/12/25 04:50:40;;;;;;;;;;;;;;;13.68;60.35;99014.84;2090230;28;20080;-63
2023/12/25 04:51:42;;;;;;;5.43;2.37;;;;;;;13.71;60.47;99017.22;2089692;28;19985;-64
2023/12/25 04:52:43;;;;;;;3.28;2.60;;;;;;;13.76;60.46;99020.22;2091793;28;20056;-62
2023/12/25 04:53:43;;;;;;;;;;;;;;;13.70;60.33;99019.03;2090595;28;20131;-64
2023/12/25 04:54:46;;;;;;;6.43;2.70;;;;;;;13.73;60.19;99017.88;2091705;28;19924;-64
2023/12/25 04:55:47;;;;;;;4.60;2.58;;;;;;;13.76;60.26;99015.75;2092338;28;20083;-63
2023/12/25 04:56:51;;;;;;;;;;;;;;;13.70;60.42;99019.03;2089698;28;20049;-64
2023/12/25 04:57:52;;;;;;;4.82;2.67;;;;;;;13.75;60.25;99018.56;2092133;28;19927;-63
2023/12/25 04:58:54;;;;;;;;;;;;;;;13.69;60.56;99013.88;2090849;28;20423;-64
2023/12/25 04:59:56;;;;;;;5.05;2.42;;;;;;;13.74;60.22;99022.22;2090479;28;20396;-63